Portada
METAR-TAF:

METAR-TAF

Aeroports :

North Kingstown, Rhode Island, Estats Units d'Amèrica

latitud: 41-36N, longitud: 071-25W, altitud: 6 m

Observació

L'informe es va fer fa 35 minuts, a les 20:50 UTC
Vent 10 kt del Oest/Sud-Oest
Temperatura 20°C
Humitat 83%
Pressió 1011 hPa
Visibilitat: 11.3 km
Cel ennuvolat a una alçada de 1100 ft
Cel cobert a una alçada de 1400 ft

METAR: KOQU 162050Z 24010KT 7SM BKN011 OVC014 20/17 A2984

Hora: 17:25 (21:25 UTC)


TAF: manca

Observacions i pronòstics meteorològics de més de 4000 aeroports (METAR i TAF).

Les estacions disponibles són els punts grocs i vermells al mapa.

Posi el ratolí al punt desitjat per veure el nom de l'estació.

Feu clic per veure les observacions i els pronòstics meteorològics.

Per canviar el mapa: feu clic els botons verds amb una creu de color negre per apropar; al botó verd amb un guió per allunyar la imatge; o en les fletxes verdes per a mapes adjacents.


METAR-TAF: